Ana Sayfa
METAR-TAF:

METAR-TAF

Havaalanları :

South Jersey Regional Airport

Mount Holly, New Jersey, Amerika Birleşik Devletleri

Enlem: 39-56-26N, Boylam: 074-50-28W, yükseklik: 16 m

Güncel hava durumu gözlemi

Rapor saat 21:18 UTC de 37 dakika önce yapıldı.
Rüzgar doğudan 4 kt
Sıcaklık 9°C
Nem 93%
Basınç 1009 hPa
Görüş mesafesi: 2.4 km
700 ft yükseklikte çok bulutlu
Pus

METAR: KVAY 252118Z AUTO 10004KT 1 1/2SM BR OVC007 09/08 A2981 RMK AO2 RAE2056 CIG 004V011 P0001 T00940083

Saat: 16:55 (21:55 UTC)


TAF: eksik

4.000'den fazla havaalanı için hava durumu gözlemleri ve tahminleri (METAR ve TAF raporları).

Kullanılabilir istasyonlar harita üzerinde sarı ve kırmızı noktalarla gösterilir.

İstasyonun adını görmek için fareyi noktanın üzerinde gezdirin.

Sonrasında hava gözlem ve tahminlerini görmek için tıklayın.

Haritayı değiştirmek için: yaklaştırmak için siyah artı işaretli yeşil düğmeye ve uzaklaştırmak için de eksi işaretli düğmeye hızla tıklayın; bitişik haritalar için yeşil okları kullanın.


METAR-TAF: